Flight Track Log - Related Links

Times and Time Zones

All times are in EDT time to prevent confusion due to time zone crossing. See the N172AV flight status page for this flight to view local times or setup timezone preferences in your user account.

Time Position Orientation Groundspeed Altitude Reporting Facility
EDT Latitude Longitude Course Direction KTS MPH feet Rate Location/Type
Mon 08:38:35 PM 41.1833 -73.2000 304° West 84 97 1,700  Level New York TRACON
Mon 08:39:41 PM 41.1833 -73.2167 270° West 66 76 2,400 548 Climbing New York TRACON
Mon 08:41:41 PM 41.2167 -73.2667 312° West 75 86 3,400 467 Climbing New York TRACON
Mon 08:42:41 PM 41.2167 -73.2833 270° West 78 90 3,800 350 Climbing New York TRACON
Mon 08:43:41 PM 41.2333 -73.3000 323° Northwest 89 102 4,100 100 Climbing New York TRACON
Mon 08:44:41 PM 41.2500 -73.3333 304° West 111 128 4,000 -50 Descending New York TRACON
Mon 08:45:41 PM 41.2500 -73.3833 270° West 97 112 4,000  Level New York TRACON
Mon 08:46:41 PM 41.2500 -73.4167 270° West 103 119 4,000 53 Level New York TRACON
Mon 08:47:35 PM 41.2667 -73.4500 304° West 102 117 4,100  Climbing New York TRACON
Mon 08:48:41 PM 41.2667 -73.4833 270° West 101 116 4,000  Descending New York TRACON
Mon 08:49:41 PM 41.2667 -73.5333 270° West 112 129 4,100 50 Climbing New York TRACON
Mon 08:50:41 PM 41.2500 -73.5667 236° Southwest 119 137 4,100 -50 Level New York TRACON
Mon 08:51:41 PM 41.2500 -73.6000 270° West 107 123 4,000  Descending New York TRACON
Mon 08:52:41 PM 41.2667 -73.6333 304° West 103 119 4,100  Climbing New York TRACON
Mon 08:53:41 PM 41.2667 -73.6667 270° West 108 124 4,000  Descending New York TRACON
Mon 08:54:41 PM 41.2667 -73.7167 270° West 108 124 4,100  Climbing New York TRACON
Mon 08:55:41 PM 41.2667 -73.7500 270° West 112 129 4,000  Descending New York TRACON
Mon 08:56:41 PM 41.2667 -73.8000 270° West 107 123 4,100  Climbing New York TRACON
Mon 08:57:41 PM 41.2667 -73.8333 270° West 109 125 4,000  Descending New York TRACON
Mon 08:58:41 PM 41.2667 -73.8667 270° West 110 127 4,100  Climbing New York TRACON
Mon 08:59:35 PM 41.2500 -73.9167 246° West 115 132 4,000  Descending New York TRACON
Mon 09:00:41 PM 41.2500 -73.9667 270° West 121 139 4,100  Climbing New York TRACON
Mon 09:01:41 PM 41.2500 -74.0000 270° West 115 132 4,000  Descending New York TRACON
Mon 09:02:41 PM 41.2333 -74.0333 236° Southwest 113 130 4,100 50 Climbing New York TRACON
Mon 09:03:41 PM 41.2167 -74.0667 236° Southwest 135 155 4,100 -50 Level New York TRACON
Mon 09:04:41 PM 41.1833 -74.0667 180° South 136 157 4,000 -33 Descending New York TRACON
Mon 09:06:41 PM 41.1167 -74.1167 209° Southwest 135 155 4,000 -167 Level New York TRACON
Mon 09:07:41 PM 41.0833 -74.1333 201° Southwest 135 155 3,500 -320 Descending New York TRACON
Mon 09:09:00 PM 41.1172 -74.1587 331° Northwest  Level FlightAware Approximate
Mon 09:11:41 PM 40.9667 -74.2500 306° West 135 155 2,400  Level New York TRACON
Mon 09:12:41 PM 40.9333 -74.2833 217° Southwest 142 163 2,000 -133 Descending New York TRACON
Mon 09:14:41 PM 40.8833 -74.3333 217° Southwest 121 139 2,000 -233 Level New York TRACON
Mon 09:15:41 PM 40.8500 -74.3500 207° Southwest 114 131 1,300 -550 Descending New York TRACON
Mon 09:16:00 PM 40.9405 -74.3015 230° Southwest  Level Estimated
Mon 09:16:00 PM 40.8448 -74.3590 207° Southwest  Level FlightAware Approximate
Mon 09:16:41 PM 40.8333 -74.3833 210° Southwest 94 108 900  Level New York TRACON
Mon 09:17:00 PM 40.9578 -74.3332 306° West  Level FlightAware Approximate
Mon 09:18:00 PM 40.7840 -74.3995 210° Southwest  Level FlightAware Approximate
Mon 09:20:00 PM 40.7993 -74.4149 163° South  Level Estimated
Mon 09:27:00 PM 40.7993 -74.4149 163° South  Level Estimated
Mon 09:28:00 PM 40.7993 -74.4149 163° South  Level Estimated
Mon 09:29:00 PM 40.7993 -74.4149 163° South  Level Estimated

Login

Don't have an account? Register now (free) for customized features, flight alerts, and more!